Terminal Aerodrome Forecast
Issued by NWS

Home | Current Version | Previous Version | Text Only | Print | Product List | Glossary On
Versions: 1 2 3 4 5 6 7 8 9 10 11 12 13 14 15 16 17 18 19 20 21 22 23 24
129
FTUS43 KJKL 191723
TAFSJS
TAF
KSJS 191723Z 1918/2018 16007G15KT 6SM -SHRA BR OVC060
     FM200300 18006KT P6SM -SHRA OVC027
     FM200400 19006KT P6SM VCSH OVC035
     FM201200 19006KT P6SM OVC060
     FM201500 20007KT 6SM -SHRA BR OVC028=

USA.gov is the U.S. government's official web portal to all federal, state and local government web resources and services.